Time;durP1;ratioP1;P1;durP2;ratioP2;P2;SDS_P1;SDS_P2;PMS_P1;PMS_P2;Temp;Humidity;BMP_temperature;BMP_pressure;BME280_temperature;BME280_humidity;BME280_pressure;Samples;Min_cycle;Max_cycle;Signal;HPM_P1;HPM_P2
2022/11/06 00:00:53;;;;;;;3.87;3.10;;;9.20;99.90;;;;;;5068035;28;20210;-68
2022/11/06 00:03:20;;;;;;;3.23;2.93;;;9.20;99.90;;;;;;5067241;28;20254;-68
2022/11/06 00:08:35;;;;;;;3.50;3.00;;;9.10;99.90;;;;;;5079548;28;20573;-69
2022/11/06 00:11:02;;;;;;;9.13;3.50;;;9.10;99.90;;;;;;5080542;28;20202;-69
2022/11/06 00:13:29;;;;;;;5.70;3.37;;;9.10;99.90;;;;;;5074277;28;20207;-69
2022/11/06 00:15:56;;;;;;;4.97;3.37;;;9.10;99.90;;;;;;5079754;28;20203;-69
2022/11/06 00:18:26;;;;;;;6.33;3.50;;;9.10;99.90;;;;;;5077531;28;20218;-69
2022/11/06 00:20:54;;;;;;;4.83;3.17;;;9.00;99.90;;;;;;5081554;28;20199;-69
2022/11/06 00:23:20;;;;;;;4.03;3.20;;;9.00;99.90;;;;;;5078329;28;20196;-69
2022/11/06 00:25:51;;;;;;;5.60;3.53;;;9.10;99.90;;;;;;5075267;28;20200;-69
2022/11/06 00:28:18;;;;;;;4.27;3.07;;;9.00;99.90;;;;;;5089355;28;20221;-70
2022/11/06 00:30:45;;;;;;;4.77;3.40;;;9.00;99.90;;;;;;5081706;28;20203;-69
2022/11/06 00:33:12;;;;;;;6.53;3.37;;;9.00;99.90;;;;;;5076143;28;20251;-69
2022/11/06 00:35:39;;;;;;;6.80;3.40;;;9.00;99.90;;;;;;5088898;28;20607;-69
2022/11/06 00:38:07;;;;;;;3.80;3.43;;;9.00;99.90;;;;;;5089266;28;20203;-69
2022/11/06 00:40:34;;;;;;;4.87;3.80;;;8.90;99.90;;;;;;5088851;28;20203;-69
2022/11/06 00:43:01;;;;;;;4.13;3.73;;;8.90;99.90;;;;;;5089018;28;20205;-70
2022/11/06 00:45:28;;;;;;;5.17;3.60;;;8.90;99.90;;;;;;5089336;28;20237;-70
2022/11/06 00:47:54;;;;;;;7.57;4.37;;;8.90;99.90;;;;;;5089019;28;20234;-69
2022/11/06 00:50:25;;;;;;;6.10;3.43;;;8.90;99.90;;;;;;5089081;28;20708;-69
2022/11/06 00:52:52;;;;;;;7.17;3.60;;;8.80;99.90;;;;;;5089100;28;20202;-69
2022/11/06 00:55:20;;;;;;;5.43;3.80;;;8.80;99.90;;;;;;5074327;28;20199;-69
2022/11/06 00:57:47;;;;;;;4.37;3.40;;;8.80;99.90;;;;;;5066762;28;20203;-69
2022/11/06 01:00:16;;;;;;;5.60;4.00;;;8.80;99.90;;;;;;5067434;28;20292;-69
2022/11/06 01:02:43;;;;;;;5.20;3.60;;;8.70;99.90;;;;;;5067863;28;20235;-69
2022/11/06 01:05:11;;;;;;;6.90;3.80;;;8.70;99.90;;;;;;5067899;28;20614;-69
2022/11/06 01:07:38;;;;;;;4.33;3.90;;;8.70;99.90;;;;;;5068159;28;20241;-68
2022/11/06 01:10:05;;;;;;;4.20;3.43;;;8.70;99.90;;;;;;5086425;28;20211;-68
2022/11/06 01:12:34;;;;;;;7.07;3.83;;;8.60;99.90;;;;;;5079964;28;20203;-69
2022/11/06 01:15:01;;;;;;;4.23;3.50;;;8.60;99.90;;;;;;5068086;28;20211;-69
2022/11/06 01:17:28;;;;;;;6.13;3.80;;;8.60;99.90;;;;;;5067862;28;20203;-68
2022/11/06 01:19:55;;;;;;;5.83;3.97;;;8.60;99.90;;;;;;5067235;28;20227;-69
2022/11/06 01:22:22;;;;;;;6.37;4.10;;;8.60;99.90;;;;;;5068375;28;20685;-70
2022/11/06 01:24:49;;;;;;;3.97;3.60;;;8.50;99.90;;;;;;5087246;28;20559;-70
2022/11/06 01:27:15;;;;;;;6.47;4.10;;;8.50;99.90;;;;;;5080365;28;20214;-70
2022/11/06 01:29:44;;;;;;;6.53;4.33;;;8.50;99.90;;;;;;5067525;28;20207;-70
2022/11/06 01:32:11;;;;;;;6.90;4.40;;;8.50;99.90;;;;;;5067362;28;20207;-70
2022/11/06 01:34:38;;;;;;;6.73;4.00;;;8.50;99.90;;;;;;5067286;28;20214;-70
2022/11/06 01:37:04;;;;;;;7.03;3.90;;;8.50;99.90;;;;;;5067652;28;20203;-70
2022/11/06 01:39:31;;;;;;;5.17;3.73;;;8.50;99.90;;;;;;5067924;28;20227;-69
2022/11/06 01:41:58;;;;;;;5.70;4.03;;;8.50;99.90;;;;;;5066900;28;20207;-70
2022/11/06 01:45:15;;;;;;;5.73;3.97;;;8.50;99.90;;;;;;5067983;28;20222;-70
2022/11/06 01:47:44;;;;;;;5.80;4.13;;;8.50;99.90;;;;;;5067468;28;20280;-70
2022/11/06 01:50:12;;;;;;;7.37;4.80;;;8.50;99.90;;;;;;5067249;28;20207;-69
2022/11/06 01:52:39;;;;;;;8.73;4.70;;;8.40;99.90;;;;;;5077511;28;20203;-68
2022/11/06 01:55:11;;;;;;;7.37;4.57;;;8.40;99.90;;;;;;5087426;28;20213;-68
2022/11/06 01:57:39;;;;;;;6.53;4.17;;;8.40;99.90;;;;;;5070461;28;20302;-68
2022/11/06 02:00:08;;;;;;;7.03;4.50;;;8.40;99.90;;;;;;5066969;28;20709;-68
2022/11/06 02:02:36;;;;;;;7.50;4.43;;;8.40;99.90;;;;;;5066072;28;20211;-69
2022/11/06 02:05:05;;;;;;;6.77;4.43;;;8.40;99.90;;;;;;5074742;28;20207;-69
2022/11/06 02:07:33;;;;;;;6.03;4.50;;;8.40;99.90;;;;;;5067784;28;20211;-69
2022/11/06 02:10:00;;;;;;;5.67;4.37;;;8.40;99.90;;;;;;5067189;28;20204;-69
2022/11/06 02:12:38;;;;;;;9.03;4.60;;;8.40;99.90;;;;;;5066848;28;20211;-70
2022/11/06 02:15:12;;;;;;;6.30;4.67;;;8.40;99.90;;;;;;5080465;28;20213;-69
2022/11/06 02:17:54;;;;;;;5.03;4.40;;;8.40;99.90;;;;;;5086819;28;20191;-69
2022/11/06 02:20:32;;;;;;;4.73;4.33;;;8.40;99.90;;;;;;5085119;28;20704;-70
2022/11/06 02:23:29;;;;;;;7.07;4.63;;;8.30;99.90;;;;;;5066937;28;20199;-69
2022/11/06 02:26:11;;;;;;;6.47;4.53;;;8.30;99.90;;;;;;5064348;28;20700;-69
2022/11/06 02:28:45;;;;;;;4.83;4.33;;;8.30;99.90;;;;;;5068066;28;20195;-69
2022/11/06 02:31:15;;;;;;;5.23;4.60;;;8.40;99.90;;;;;;5066992;28;20191;-69
2022/11/06 02:33:46;;;;;;;7.13;5.00;;;8.30;99.90;;;;;;5067110;28;20196;-69
2022/11/06 02:36:18;;;;;;;6.63;4.60;;;8.30;99.90;;;;;;5066712;28;20548;-69
2022/11/06 02:38:50;;;;;;;7.00;4.77;;;8.30;99.90;;;;;;5066728;28;20195;-69
2022/11/06 02:41:20;;;;;;;8.87;5.30;;;8.30;99.90;;;;;;5066985;28;20199;-69
2022/11/06 02:43:51;;;;;;;5.83;4.50;;;8.30;99.90;;;;;;5066881;28;20211;-69
2022/11/06 02:46:22;;;;;;;6.13;4.80;;;8.20;99.90;;;;;;5066596;28;20223;-69
2022/11/06 02:48:54;;;;;;;5.33;4.67;;;8.20;99.90;;;;;;5066196;28;20199;-69
2022/11/06 02:51:25;;;;;;;8.80;5.40;;;8.20;99.90;;;;;;5066693;28;20642;-70
2022/11/06 02:53:54;;;;;;;8.37;5.57;;;8.10;99.90;;;;;;5068311;28;20188;-70
2022/11/06 02:56:25;;;;;;;6.70;5.47;;;8.10;99.90;;;;;;5076563;28;20661;-70
2022/11/06 02:58:57;;;;;;;6.37;4.90;;;8.10;99.90;;;;;;5090857;28;20210;-69
2022/11/06 03:01:29;;;;;;;8.13;4.87;;;8.10;99.90;;;;;;5080676;28;20207;-69
2022/11/06 03:04:00;;;;;;;6.73;5.30;;;8.10;99.90;;;;;;5069839;28;20239;-69
2022/11/06 03:06:32;;;;;;;8.33;4.90;;;8.10;99.90;;;;;;5070318;28;20729;-69
2022/11/06 03:09:04;;;;;;;5.53;4.93;;;8.10;99.90;;;;;;5075342;28;20289;-69
2022/11/06 03:11:34;;;;;;;4.97;4.57;;;8.10;99.90;;;;;;5089107;28;20205;-69
2022/11/06 03:14:09;;;;;;;7.50;5.57;;;8.10;99.90;;;;;;5090663;28;20211;-69
2022/11/06 03:16:46;;;;;;;6.43;4.90;;;8.10;99.90;;;;;;5090481;28;20190;-69
2022/11/06 03:19:23;;;;;;;6.83;5.37;;;8.10;99.90;;;;;;5090440;28;20435;-69
2022/11/06 03:22:00;;;;;;;8.17;5.20;;;8.10;99.90;;;;;;5076819;28;20207;-68
2022/11/06 03:24:32;;;;;;;6.13;5.10;;;8.10;99.90;;;;;;5070364;28;20200;-68
2022/11/06 03:27:00;;;;;;;7.47;5.63;;;8.10;99.90;;;;;;5076524;28;20199;-68
2022/11/06 03:29:35;;;;;;;9.07;5.70;;;8.10;99.90;;;;;;5070058;28;20661;-68
2022/11/06 03:32:11;;;;;;;10.37;5.53;;;8.10;99.90;;;;;;5070253;28;20203;-68
2022/11/06 03:34:42;;;;;;;6.37;5.33;;;8.10;99.90;;;;;;5069582;28;20191;-68
2022/11/06 03:37:16;;;;;;;6.07;5.13;;;8.10;99.90;;;;;;5069951;28;20666;-68
2022/11/06 03:39:48;;;;;;;7.77;5.23;;;8.10;99.90;;;;;;5069891;28;20216;-68
2022/11/06 03:42:20;;;;;;;6.70;5.50;;;8.10;99.90;;;;;;5069717;28;20203;-68
2022/11/06 03:44:53;;;;;;;6.90;5.70;;;8.10;99.90;;;;;;5070140;28;20202;-67
2022/11/06 03:47:24;;;;;;;6.33;5.13;;;8.10;99.90;;;;;;5069754;28;20624;-68
2022/11/06 03:49:56;;;;;;;7.03;5.23;;;8.10;99.90;;;;;;5069759;28;20200;-69
2022/11/06 03:52:29;;;;;;;7.20;5.30;;;8.00;99.90;;;;;;5069811;28;20196;-69
2022/11/06 03:55:00;;;;;;;7.67;5.17;;;8.00;99.90;;;;;;5082597;28;20196;-69
2022/11/06 03:57:34;;;;;;;6.50;5.10;;;8.00;99.90;;;;;;5081213;28;20567;-69
2022/11/06 04:00:05;;;;;;;6.23;4.87;;;8.00;99.90;;;;;;5069558;28;20226;-69
2022/11/06 04:02:36;;;;;;;6.43;5.00;;;8.00;99.90;;;;;;5069343;28;20200;-69
2022/11/06 04:05:07;;;;;;;7.90;5.30;;;8.00;99.90;;;;;;5076153;28;20628;-69
2022/11/06 04:07:36;;;;;;;8.77;5.53;;;8.00;99.90;;;;;;5089417;28;20723;-69
2022/11/06 04:15:47;;;;;;;7.13;5.17;;;8.00;99.90;;;;;;5069047;28;20585;-68
2022/11/06 04:18:18;;;;;;;6.20;5.33;;;8.00;99.90;;;;;;5069430;28;20192;-68
2022/11/06 04:26:34;;;;;;;6.40;4.93;;;7.90;99.90;;;;;;5069322;28;20195;-69
2022/11/06 04:26:39;;;;;;;6.70;4.90;;;7.90;99.90;;;;;;5068512;28;20290;-69
2022/11/06 04:29:18;;;;;;;7.17;5.00;;;7.90;99.90;;;;;;5069024;28;20261;-69
2022/11/06 04:31:53;;;;;;;7.03;5.20;;;7.90;99.90;;;;;;5069130;28;20211;-69
2022/11/06 04:34:28;;;;;;;6.93;5.50;;;7.90;99.90;;;;;;5068435;28;20555;-69
2022/11/06 04:37:01;;;;;;;5.43;4.93;;;7.90;99.90;;;;;;5068651;28;20192;-69
2022/11/06 04:39:34;;;;;;;5.57;5.07;;;7.80;99.90;;;;;;5068983;28;20686;-69
2022/11/06 04:42:09;;;;;;;6.63;4.73;;;7.80;99.90;;;;;;5068671;28;20196;-69
2022/11/06 04:44:39;;;;;;;6.87;4.80;;;7.80;99.90;;;;;;5068678;28;20701;-69
2022/11/06 04:47:09;;;;;;;7.53;5.20;;;7.80;99.90;;;;;;5068689;28;20276;-69
2022/11/06 04:49:39;;;;;;;7.70;5.10;;;7.80;99.90;;;;;;5068292;28;20211;-69
2022/11/06 04:52:09;;;;;;;10.23;6.00;;;7.90;99.90;;;;;;5068976;28;20202;-69
2022/11/06 04:54:36;;;;;;;5.47;4.97;;;7.80;99.90;;;;;;5083178;28;20697;-69
2022/11/06 04:57:03;;;;;;;6.73;5.60;;;7.90;99.90;;;;;;5084545;28;20199;-69
2022/11/06 04:59:34;;;;;;;5.33;4.83;;;7.90;99.90;;;;;;5068178;28;20211;-69
2022/11/06 05:02:00;;;;;;;7.13;5.23;;;7.90;99.90;;;;;;5082048;28;20194;-69
2022/11/06 05:04:28;;;;;;;5.63;5.13;;;7.90;99.90;;;;;;5087989;28;20582;-69
2022/11/06 05:06:55;;;;;;;8.67;5.07;;;7.90;99.90;;;;;;5087990;28;20733;-68
2022/11/06 05:09:22;;;;;;;6.37;5.00;;;7.80;99.90;;;;;;5079076;28;20568;-68
2022/11/06 05:11:49;;;;;;;6.20;5.23;;;7.80;99.90;;;;;;5088631;28;20222;-69
2022/11/06 05:14:15;;;;;;;5.90;5.33;;;7.80;99.90;;;;;;5088407;28;20202;-69
2022/11/06 05:16:42;;;;;;;6.73;4.93;;;7.80;99.90;;;;;;5087842;28;20203;-68
2022/11/06 05:19:09;;;;;;;7.53;4.83;;;7.70;99.90;;;;;;5087603;28;20227;-68
2022/11/06 05:24:21;;;;;;;5.63;4.97;;;7.70;99.90;;;;;;5081837;28;20895;-68
2022/11/06 05:26:48;;;;;;;5.53;5.03;;;7.70;99.90;;;;;;5083914;28;20199;-68
2022/11/06 05:29:15;;;;;;;5.77;4.77;;;7.70;99.90;;;;;;5067431;28;20208;-70
2022/11/06 05:31:42;;;;;;;6.03;4.97;;;7.70;99.90;;;;;;5067525;28;20218;-69
2022/11/06 05:34:08;;;;;;;6.07;4.53;;;7.70;99.90;;;;;;5067553;28;20219;-69
2022/11/06 05:36:36;;;;;;;5.97;5.10;;;7.60;99.90;;;;;;5067666;28;20222;-68
2022/11/06 05:39:04;;;;;;;5.47;4.83;;;7.60;99.90;;;;;;5072976;28;20198;-68
2022/11/06 05:41:30;;;;;;;9.03;4.90;;;7.60;99.90;;;;;;5087911;28;20238;-69
2022/11/06 05:43:57;;;;;;;6.67;4.63;;;7.60;99.90;;;;;;5087725;28;20207;-69
2022/11/06 05:46:24;;;;;;;5.67;4.77;;;7.60;99.90;;;;;;5087519;28;20223;-69
2022/11/06 05:48:51;;;;;;;5.67;5.03;;;7.60;99.90;;;;;;5087533;28;20216;-69
2022/11/06 05:51:18;;;;;;;6.33;5.13;;;7.60;99.90;;;;;;5067517;28;21004;-69
2022/11/06 05:53:47;;;;;;;7.57;4.90;;;7.50;99.90;;;;;;5067108;28;20293;-69
2022/11/06 05:56:13;;;;;;;5.97;5.10;;;7.60;99.90;;;;;;5067215;28;20663;-68
2022/11/06 05:58:40;;;;;;;7.37;5.20;;;7.50;99.90;;;;;;5067041;28;20207;-68
2022/11/06 06:01:07;;;;;;;5.03;4.53;;;7.60;99.90;;;;;;5067461;28;20258;-68
2022/11/06 06:03:34;;;;;;;5.10;4.60;;;7.60;99.90;;;;;;5066857;28;20231;-67
2022/11/06 06:06:00;;;;;;;5.60;5.17;;;7.60;99.90;;;;;;5067061;28;20606;-68
2022/11/06 06:08:29;;;;;;;5.10;4.70;;;7.60;99.90;;;;;;5066988;28;20208;-67
2022/11/06 06:10:57;;;;;;;5.70;5.03;;;7.60;99.90;;;;;;5067314;28;20235;-67
2022/11/06 06:13:24;;;;;;;8.73;5.30;;;7.60;99.90;;;;;;5067032;28;20208;-67
2022/11/06 06:15:51;;;;;;;7.77;5.10;;;7.60;99.90;;;;;;5067309;28;20218;-68
2022/11/06 06:18:17;;;;;;;5.97;5.37;;;7.60;99.90;;;;;;5066896;28;20210;-68
2022/11/06 06:20:44;;;;;;;6.13;5.43;;;7.60;99.90;;;;;;5066383;28;20567;-69
2022/11/06 06:23:11;;;;;;;6.03;4.93;;;7.60;99.90;;;;;;5066794;28;20203;-69
2022/11/06 06:25:38;;;;;;;7.97;5.37;;;7.60;99.90;;;;;;5066801;28;20207;-68
2022/11/06 06:28:06;;;;;;;8.23;5.10;;;7.60;99.90;;;;;;5066036;28;20686;-69
2022/11/06 06:30:34;;;;;;;5.80;5.30;;;7.60;99.90;;;;;;5067059;28;20211;-69
2022/11/06 06:33:04;;;;;;;5.73;5.23;;;7.60;99.90;;;;;;5066988;28;20233;-69
2022/11/06 06:35:31;;;;;;;8.27;5.20;;;7.50;99.90;;;;;;5066787;28;20271;-69
2022/11/06 06:37:58;;;;;;;7.33;5.10;;;7.50;99.90;;;;;;5066420;28;20211;-68
2022/11/06 06:40:25;;;;;;;5.20;4.77;;;7.50;99.90;;;;;;5066851;28;20226;-68
2022/11/06 06:42:56;;;;;;;7.80;5.37;;;7.40;99.90;;;;;;5066480;28;20673;-68
2022/11/06 06:45:24;;;;;;;8.27;4.87;;;7.40;99.90;;;;;;5066991;28;20227;-68
2022/11/06 06:47:51;;;;;;;5.53;5.07;;;7.40;99.90;;;;;;5066880;28;20206;-68
2022/11/06 06:50:18;;;;;;;6.37;5.20;;;7.40;99.90;;;;;;5076661;28;20209;-68
2022/11/06 06:52:44;;;;;;;5.97;5.23;;;7.40;99.90;;;;;;5087259;28;20206;-68
2022/11/06 06:55:11;;;;;;;6.63;5.30;;;7.50;99.90;;;;;;5067386;28;20204;-68
2022/11/06 06:57:38;;;;;;;6.30;5.20;;;7.40;99.90;;;;;;5066670;28;20207;-68
2022/11/06 07:00:06;;;;;;;5.40;4.90;;;7.50;99.90;;;;;;5066914;28;20203;-68
2022/11/06 07:02:34;;;;;;;5.37;4.90;;;7.50;99.90;;;;;;5084613;28;20207;-68
2022/11/06 07:05:00;;;;;;;5.57;4.80;;;7.50;99.90;;;;;;5086565;28;20199;-69
2022/11/06 07:07:27;;;;;;;5.60;5.00;;;7.50;99.90;;;;;;5086794;28;20207;-68
2022/11/06 07:09:54;;;;;;;7.17;5.00;;;7.50;99.90;;;;;;5074917;28;20208;-68
2022/11/06 07:12:21;;;;;;;5.30;4.73;;;7.60;99.90;;;;;;5065995;28;20210;-68
2022/11/06 07:14:47;;;;;;;5.37;4.87;;;7.60;99.90;;;;;;5066000;28;20203;-68
2022/11/06 07:17:14;;;;;;;6.17;4.80;;;7.60;99.90;;;;;;5066414;28;20212;-68
2022/11/06 07:19:42;;;;;;;5.73;5.20;;;7.60;99.90;;;;;;5066165;28;20207;-70
2022/11/06 07:22:09;;;;;;;6.93;5.30;;;7.70;99.90;;;;;;5066373;28;20231;-70
2022/11/06 07:24:36;;;;;;;8.33;5.33;;;7.70;99.90;;;;;;5066317;28;20204;-70
2022/11/06 07:27:02;;;;;;;6.00;4.87;;;7.80;99.90;;;;;;5075229;28;20210;-69
2022/11/06 07:29:29;;;;;;;5.90;4.97;;;7.90;99.90;;;;;;5086456;28;20209;-69
2022/11/06 07:31:56;;;;;;;8.07;5.20;;;7.90;99.90;;;;;;5086411;28;20210;-70
2022/11/06 07:34:23;;;;;;;5.17;4.77;;;8.00;99.90;;;;;;5086241;28;20210;-69
2022/11/06 07:36:51;;;;;;;6.50;4.90;;;8.00;99.90;;;;;;5086387;28;20207;-69
2022/11/06 07:39:17;;;;;;;5.30;4.90;;;8.00;99.90;;;;;;5086325;28;20210;-70
2022/11/06 07:41:44;;;;;;;6.77;5.37;;;8.10;99.90;;;;;;5088040;28;20244;-69
2022/11/06 07:44:11;;;;;;;9.47;5.47;;;8.10;99.90;;;;;;5069414;28;20650;-70
2022/11/06 07:46:38;;;;;;;7.17;5.50;;;8.20;99.90;;;;;;5069728;28;20226;-68
2022/11/06 07:49:04;;;;;;;5.50;5.00;;;8.30;99.90;;;;;;5069803;28;20238;-68
2022/11/06 07:51:31;;;;;;;6.53;5.20;;;8.30;99.90;;;;;;5069559;28;20207;-68
2022/11/06 07:53:59;;;;;;;5.20;4.80;;;8.40;99.90;;;;;;5069683;28;20211;-68
2022/11/06 07:56:26;;;;;;;5.43;4.93;;;8.40;99.90;;;;;;5069835;28;20237;-68
2022/11/06 07:58:53;;;;;;;5.50;5.00;;;8.40;99.90;;;;;;5069477;28;20208;-68
2022/11/06 08:01:20;;;;;;;5.33;4.77;;;8.50;99.90;;;;;;5069462;28;20227;-69
2022/11/06 08:03:46;;;;;;;5.07;4.57;;;8.50;99.90;;;;;;5069386;28;20232;-69
2022/11/06 08:06:13;;;;;;;5.23;4.70;;;8.60;99.90;;;;;;5087122;28;20206;-69
2022/11/06 08:08:40;;;;;;;6.80;5.80;;;8.70;99.90;;;;;;5089019;28;20214;-69
2022/11/06 08:11:10;;;;;;;5.50;4.90;;;8.70;99.90;;;;;;5089940;28;20232;-69
2022/11/06 08:13:37;;;;;;;10.97;5.20;;;8.80;99.90;;;;;;5089359;28;20226;-69
2022/11/06 08:16:05;;;;;;;5.60;5.10;;;8.80;99.90;;;;;;5089633;28;20199;-69
2022/11/06 08:18:32;;;;;;;5.60;4.80;;;8.80;99.90;;;;;;5089011;28;20213;-69
2022/11/06 08:20:59;;;;;;;6.73;5.00;;;8.90;99.90;;;;;;5082668;28;20259;-69
2022/11/06 08:23:26;;;;;;;5.30;4.80;;;8.90;99.90;;;;;;5068912;28;20203;-69
2022/11/06 08:25:55;;;;;;;7.67;5.20;;;8.90;99.90;;;;;;5071274;28;20306;-70
2022/11/06 08:28:23;;;;;;;5.33;4.90;;;9.00;99.90;;;;;;5073794;28;20206;-69
2022/11/06 08:30:50;;;;;;;5.53;5.03;;;9.00;99.90;;;;;;5079857;28;20206;-68
2022/11/06 08:33:17;;;;;;;5.73;5.10;;;9.10;99.90;;;;;;5076243;28;20210;-68
2022/11/06 08:35:44;;;;;;;6.00;5.37;;;9.10;99.90;;;;;;5078199;28;20206;-69
2022/11/06 08:38:10;;;;;;;6.30;5.10;;;9.10;99.90;;;;;;5077052;28;20235;-69
2022/11/06 08:40:38;;;;;;;6.73;4.70;;;9.20;99.90;;;;;;5077277;28;20230;-69
2022/11/06 08:43:07;;;;;;;5.50;5.00;;;9.20;99.90;;;;;;5078647;28;20203;-70
2022/11/06 08:45:36;;;;;;;5.53;5.00;;;9.30;99.90;;;;;;5076478;28;20211;-70
2022/11/06 08:48:04;;;;;;;6.13;4.83;;;9.30;99.90;;;;;;5076217;28;20200;-68
2022/11/06 08:50:32;;;;;;;6.03;5.33;;;9.40;99.90;;;;;;5076409;28;20196;-68
2022/11/06 08:52:59;;;;;;;6.07;5.10;;;9.40;99.90;;;;;;5075844;28;20207;-68
2022/11/06 08:55:26;;;;;;;5.80;4.83;;;9.50;99.90;;;;;;5067118;28;20196;-70
2022/11/06 08:57:54;;;;;;;5.93;5.37;;;9.50;99.90;;;;;;5069890;28;20197;-70
2022/11/06 09:00:21;;;;;;;6.63;5.80;;;9.60;99.90;;;;;;5078358;28;20203;-68
2022/11/06 09:02:49;;;;;;;6.00;4.90;;;9.60;99.90;;;;;;5082651;28;20233;-68
2022/11/06 09:05:16;;;;;;;5.57;5.17;;;9.70;99.90;;;;;;5085774;28;20677;-68
2022/11/06 09:07:43;;;;;;;6.13;4.80;;;9.80;99.90;;;;;;5069381;28;20230;-69
2022/11/06 09:10:10;;;;;;;5.97;5.43;;;9.80;99.90;;;;;;5065902;28;20210;-68
2022/11/06 09:12:37;;;;;;;6.23;5.63;;;9.90;99.90;;;;;;5066013;28;20586;-68
2022/11/06 09:15:04;;;;;;;6.10;5.47;;;9.90;99.90;;;;;;5066278;28;20207;-68
2022/11/06 09:17:31;;;;;;;5.33;4.57;;;10.00;99.90;;;;;;5065979;28;20568;-69
2022/11/06 09:19:59;;;;;;;5.40;4.77;;;10.10;99.90;;;;;;5065883;28;20208;-69
2022/11/06 09:22:26;;;;;;;6.20;4.93;;;10.20;99.90;;;;;;5065977;28;20243;-69
2022/11/06 09:24:52;;;;;;;5.70;5.23;;;10.20;99.90;;;;;;5066543;28;20207;-68
2022/11/06 09:27:19;;;;;;;5.40;4.90;;;10.20;99.90;;;;;;5069580;28;20775;-68
2022/11/06 09:29:47;;;;;;;5.33;4.90;;;10.30;99.90;;;;;;5065762;28;20238;-68
2022/11/06 09:32:14;;;;;;;5.13;4.73;;;10.30;99.90;;;;;;5065836;28;20666;-68
2022/11/06 09:34:41;;;;;;;5.00;4.60;;;10.40;99.90;;;;;;5065305;28;20215;-68
2022/11/06 09:37:09;;;;;;;6.43;5.30;;;10.50;99.90;;;;;;5066565;28;20218;-68
2022/11/06 09:39:36;;;;;;;4.63;4.20;;;10.40;99.90;;;;;;5065942;28;20299;-69
2022/11/06 09:42:12;;;;;;;6.27;4.67;;;10.50;99.90;;;;;;5081382;28;20239;-69
2022/11/06 09:44:54;;;;;;;5.50;4.70;;;10.60;99.90;;;;;;5065945;28;20223;-68
2022/11/06 09:47:25;;;;;;;5.20;4.70;;;10.70;99.90;;;;;;5065399;28;20701;-68
2022/11/06 09:49:54;;;;;;;5.07;4.53;;;10.80;99.90;;;;;;5065345;28;20673;-68
2022/11/06 09:52:32;;;;;;;5.40;4.47;;;10.90;99.90;;;;;;5065495;28;20772;-68
2022/11/06 09:55:02;;;;;;;4.83;4.00;;;11.00;99.90;;;;;;5084895;28;20221;-68
2022/11/06 09:57:35;;;;;;;5.03;4.53;;;11.10;99.90;;;;;;5078344;28;20238;-68
2022/11/06 10:00:04;;;;;;;4.57;4.20;;;11.10;99.90;;;;;;5078663;28;20296;-68
2022/11/06 10:02:37;;;;;;;4.30;4.00;;;11.10;99.90;;;;;;5085118;28;20246;-68
2022/11/06 10:05:13;;;;;;;4.33;3.93;;;11.20;99.90;;;;;;5085076;28;20198;-68
2022/11/06 10:07:43;;;;;;;3.70;3.40;;;11.30;99.90;;;;;;5085454;28;20190;-68
2022/11/06 10:10:15;;;;;;;4.00;3.60;;;11.40;99.90;;;;;;5085610;28;20198;-69
2022/11/06 10:12:59;;;;;;;10.07;7.77;;;11.60;99.90;;;;;;5085766;28;20228;-68
2022/11/06 10:15:30;;;;;;;8.50;7.63;;;11.50;99.90;;;;;;5085980;28;20198;-69
2022/11/06 10:18:09;;;;;;;4.37;3.80;;;11.60;99.90;;;;;;5078223;28;20192;-68
2022/11/06 10:20:44;;;;;;;5.93;4.30;;;11.70;99.90;;;;;;5064975;28;20553;-69
2022/11/06 10:23:23;;;;;;;4.20;3.80;;;11.80;99.90;;;;;;5065301;28;20220;-69
2022/11/06 10:26:04;;;;;;;3.93;3.63;;;11.80;99.90;;;;;;5066595;28;20196;-69
2022/11/06 10:29:18;;;;;;;3.70;3.33;;;11.70;99.90;;;;;;5084870;28;20731;-69
2022/11/06 10:31:54;;;;;;;5.77;3.80;;;11.70;99.90;;;;;;5072171;28;20767;-68
2022/11/06 10:34:25;;;;;;;4.40;3.80;;;11.80;99.90;;;;;;5065147;28;20194;-68
2022/11/06 10:36:55;;;;;;;4.53;3.50;;;11.60;99.90;;;;;;5065344;28;20206;-68
2022/11/06 10:39:28;;;;;;;5.80;3.57;;;11.70;99.90;;;;;;5077740;28;20199;-67
2022/11/06 10:42:06;;;;;;;5.83;3.50;;;11.90;99.90;;;;;;5085250;28;20218;-68
2022/11/06 10:44:38;;;;;;;4.43;3.53;;;12.00;99.90;;;;;;5075864;28;20570;-68
2022/11/06 10:47:11;;;;;;;4.10;3.77;;;12.20;99.90;;;;;;5065265;28;20238;-68
2022/11/06 10:49:44;;;;;;;3.90;3.50;;;12.20;99.90;;;;;;5064668;28;20202;-68
2022/11/06 10:52:30;;;;;;;4.10;3.43;;;12.40;99.90;;;;;;5064916;28;20188;-68
2022/11/06 10:55:20;;;;;;;4.30;3.43;;;12.40;99.90;;;;;;5065030;28;20204;-68
2022/11/06 10:57:51;;;;;;;6.20;3.40;;;12.60;99.90;;;;;;5083408;28;20207;-68
2022/11/06 11:00:18;;;;;;;4.33;3.60;;;12.60;99.90;;;;;;5086009;28;20986;-68
2022/11/06 11:02:47;;;;;;;4.03;3.60;;;12.70;99.90;;;;;;5085237;28;20346;-68
2022/11/06 11:05:17;;;;;;;5.30;3.57;;;12.70;99.90;;;;;;5084544;28;20211;-68
2022/11/06 11:07:46;;;;;;;3.70;3.40;;;12.80;99.90;;;;;;5085172;28;20211;-68
2022/11/06 11:10:33;;;;;;;3.53;3.23;;;12.80;99.90;;;;;;5072824;28;20200;-68
2022/11/06 11:13:02;;;;;;;7.17;3.30;;;12.90;99.90;;;;;;5064841;28;20200;-68
2022/11/06 11:15:30;;;;;;;3.57;3.27;;;13.00;99.90;;;;;;5067215;28;20203;-68
2022/11/06 11:18:15;;;;;;;3.70;3.43;;;13.00;99.90;;;;;;5068263;28;20203;-68
2022/11/06 11:20:43;;;;;;;4.33;3.93;;;13.10;99.90;;;;;;5068171;28;20199;-68
2022/11/06 11:23:19;;;;;;;3.63;3.33;;;13.10;99.90;;;;;;5068243;28;20254;-68
2022/11/06 11:25:48;;;;;;;3.77;3.43;;;13.20;99.90;;;;;;5074980;28;20587;-68
2022/11/06 11:28:28;;;;;;;3.90;3.60;;;13.20;99.90;;;;;;5081343;28;20729;-68
2022/11/06 11:31:04;;;;;;;3.80;3.50;;;13.30;99.90;;;;;;5084182;28;20218;-68
2022/11/06 11:33:31;;;;;;;5.90;3.23;;;13.20;99.90;;;;;;5068478;28;20268;-68
2022/11/06 11:35:58;;;;;;;3.47;3.17;;;13.30;99.90;;;;;;5074144;28;20846;-68
2022/11/06 11:38:25;;;;;;;3.97;3.57;;;13.30;99.90;;;;;;5084199;28;20207;-68
2022/11/06 11:41:06;;;;;;;3.50;3.20;;;13.40;99.90;;;;;;5068701;28;20222;-68
2022/11/06 11:43:33;;;;;;;6.07;3.40;;;13.40;99.90;;;;;;5068805;28;20231;-69
2022/11/06 11:46:20;;;;;;;3.53;3.03;;;13.50;99.90;;;;;;5068070;28;20238;-68
2022/11/06 11:48:48;;;;;;;3.50;3.20;;;13.50;99.90;;;;;;5065379;28;20204;-68
2022/11/06 11:51:26;;;;;;;6.13;5.33;;;13.60;99.90;;;;;;5070516;28;20207;-69
2022/11/06 11:53:56;;;;;;;4.40;3.37;;;13.70;99.90;;;;;;5088113;28;20195;-68
2022/11/06 11:56:26;;;;;;;5.83;4.07;;;13.70;99.90;;;;;;5079856;28;20219;-68
2022/11/06 11:58:55;;;;;;;5.20;2.80;;;13.60;99.90;;;;;;5075450;28;20206;-69
2022/11/06 12:01:36;;;;;;;4.63;3.20;;;13.50;99.90;;;;;;5083768;28;20238;-68
2022/11/06 12:04:13;;;;;;;3.37;3.07;;;13.50;99.90;;;;;;5075450;28;20678;-69
2022/11/06 12:06:59;;;;;;;5.53;3.03;;;13.60;99.90;;;;;;5071993;28;20191;-68
2022/11/06 12:09:30;;;;;;;3.70;3.03;;;13.70;99.90;;;;;;5067895;28;20203;-68
2022/11/06 12:12:02;;;;;;;4.47;3.17;;;13.80;99.90;;;;;;5077493;28;20210;-68
2022/11/06 12:14:34;;;;;;;3.30;2.90;;;13.70;99.90;;;;;;5087527;28;20285;-69
2022/11/06 12:17:09;;;;;;;4.53;2.87;;;13.70;99.90;;;;;;5087177;28;20665;-69
2022/11/06 12:19:39;;;;;;;4.27;3.00;;;13.50;99.90;;;;;;5087984;28;20201;-69
2022/11/06 12:22:10;;;;;;;3.20;2.90;;;13.50;99.90;;;;;;5072500;28;20352;-68
2022/11/06 12:24:43;;;;;;;3.77;2.90;;;13.60;99.90;;;;;;5073405;28;20226;-68
2022/11/06 12:27:15;;;;;;;3.30;2.90;;;13.60;99.90;;;;;;5066966;28;20227;-68
2022/11/06 12:29:47;;;;;;;2.90;2.70;;;13.70;99.90;;;;;;5067050;28;20229;-68
2022/11/06 12:32:25;;;;;;;3.53;2.80;;;13.60;99.90;;;;;;5071379;28;20195;-68
2022/11/06 12:34:58;;;;;;;3.73;2.83;;;13.60;99.90;;;;;;5087040;28;20201;-69
2022/11/06 12:37:35;;;;;;;3.97;3.13;;;13.70;99.90;;;;;;5087703;28;20195;-69
2022/11/06 12:40:12;;;;;;;4.63;2.90;;;13.90;99.90;;;;;;5069561;28;20213;-68
2022/11/06 12:42:45;;;;;;;2.97;2.37;;;14.00;99.90;;;;;;5067510;28;20229;-68
2022/11/06 12:45:12;;;;;;;4.20;3.10;;;14.10;99.90;;;;;;5067263;28;20616;-68
2022/11/06 12:47:46;;;;;;;3.37;2.67;;;14.10;99.90;;;;;;5085261;28;20195;-68
2022/11/06 12:50:28;;;;;;;3.33;3.00;;;14.10;99.90;;;;;;5077630;28;20549;-69
2022/11/06 12:53:17;;;;;;;3.30;3.00;;;14.20;99.90;;;;;;5074837;28;20273;-69
2022/11/06 12:55:54;;;;;;;3.17;2.80;;;14.30;99.90;;;;;;5075149;28;20432;-69
2022/11/06 13:01:25;;;;;;;3.10;2.40;;;14.40;99.90;;;;;;5143989;27;20608;-69
2022/11/06 13:04:10;;;;;;;2.80;2.60;;;14.50;99.90;;;;;;5143704;27;20603;-70
2022/11/06 13:07:04;;;;;;;5.00;3.17;;;14.50;99.90;;;;;;5143745;27;20193;-69
2022/11/06 13:09:37;;;;;;;3.43;2.30;;;14.50;99.90;;;;;;5125049;28;20652;-69
2022/11/06 13:12:12;;;;;;;2.73;2.43;;;14.40;99.90;;;;;;5130425;27;20205;-69
2022/11/06 13:14:46;;;;;;;2.93;2.47;;;14.30;99.90;;;;;;5138920;27;20200;-69
2022/11/06 13:17:20;;;;;;;3.93;2.93;;;14.20;99.90;;;;;;5144097;27;20201;-69
2022/11/06 13:19:51;;;;;;;3.27;2.70;;;14.00;99.90;;;;;;5137203;27;20221;-69
2022/11/06 13:22:28;;;;;;;2.57;2.30;;;14.00;99.90;;;;;;5140910;27;20612;-69
2022/11/06 13:25:02;;;;;;;6.27;2.70;;;14.00;99.90;;;;;;5125945;27;20284;-71
2022/11/06 13:27:37;;;;;;;4.07;2.30;;;14.00;99.90;;;;;;5153104;27;20200;-71